createdAt,value
2023-09-10T10:45:40.997Z,1006.60
2023-09-10T10:46:26.986Z,1006.30
2023-09-10T10:47:12.951Z,1006.30
2023-09-10T10:47:58.979Z,1006.20
2023-09-10T10:48:44.925Z,1006.20
2023-09-10T10:49:31.000Z,1006.30
2023-09-10T10:50:17.100Z,1006.50
2023-09-10T10:51:03.113Z,1006.20
2023-09-10T10:51:55.754Z,1006.40
2023-09-10T10:52:34.952Z,1006.40
2023-09-10T10:53:21.017Z,1006.30
2023-09-10T10:54:06.924Z,1006.20
2023-09-10T10:54:53.009Z,1006.20
2023-09-10T10:55:38.956Z,1006.20
2023-09-10T10:56:24.977Z,1006.20
2023-09-10T10:57:11.027Z,1006.20
2023-09-10T10:57:57.020Z,1006.20
2023-09-10T10:58:43.182Z,1006.20
2023-09-10T10:59:29.048Z,1006.40
2023-09-10T11:00:15.104Z,1005.99
2023-09-10T11:01:00.999Z,1006.30
2023-09-10T11:01:47.044Z,1006.30
2023-09-10T11:02:33.039Z,1006.20
2023-09-10T11:03:19.281Z,1006.20
2023-09-10T11:04:04.980Z,1006.30
2023-09-10T11:04:51.036Z,1006.09
2023-09-10T11:05:37.019Z,1006.09
2023-09-10T11:06:23.046Z,1005.99
2023-09-10T11:07:09.053Z,1006.09
2023-09-10T11:07:55.060Z,1005.79
2023-09-10T11:08:41.017Z,1005.79
2023-09-10T11:09:27.028Z,1006.20
2023-09-10T11:10:13.068Z,1005.89
2023-09-10T11:10:59.029Z,1005.89
2023-09-10T11:11:45.070Z,1005.89
2023-09-10T11:12:31.038Z,1005.99
2023-09-10T11:13:17.080Z,1006.20
2023-09-10T11:14:03.181Z,1006.09
2023-09-10T11:14:49.256Z,1005.99
2023-09-10T11:15:35.216Z,1005.99
2023-09-10T11:16:21.152Z,1006.09
2023-09-10T11:17:07.131Z,1005.99
2023-09-10T11:17:53.179Z,1005.89
2023-09-10T11:18:39.051Z,1005.89
2023-09-10T11:19:25.036Z,1005.99
2023-09-10T11:20:11.203Z,1005.99
2023-09-10T11:20:57.116Z,1005.79
2023-09-10T11:21:43.042Z,1005.79
2023-09-10T11:22:29.083Z,1005.79
2023-09-10T11:23:15.103Z,1005.99
2023-09-10T11:24:01.101Z,1006.20
2023-09-10T11:24:47.095Z,1006.20
2023-09-10T11:25:33.081Z,1005.99
2023-09-10T11:26:19.335Z,1005.99
2023-09-10T11:27:05.083Z,1005.89
2023-09-10T11:27:51.066Z,1005.99
2023-09-10T11:28:37.047Z,1005.99
2023-09-10T11:29:23.164Z,1005.79
2023-09-10T11:30:09.187Z,1005.89
2023-09-10T11:30:55.202Z,1006.09
2023-09-10T11:31:41.290Z,1006.09
2023-09-10T11:32:27.245Z,1005.79
2023-09-10T11:33:13.166Z,1006.09
2023-09-10T11:33:59.124Z,1005.89
2023-09-10T11:34:45.130Z,1005.89
2023-09-10T11:35:31.173Z,1005.89
2023-09-10T11:36:17.163Z,1005.99
2023-09-10T11:37:03.164Z,1005.89
2023-09-10T11:37:49.313Z,1005.89
2023-09-10T11:38:35.156Z,1005.89
2023-09-10T11:39:21.174Z,1005.89
2023-09-10T11:40:07.113Z,1006.20
2023-09-10T11:40:53.203Z,1005.79
2023-09-10T11:41:39.206Z,1005.79
2023-09-10T11:42:25.182Z,1005.99
2023-09-10T11:43:11.126Z,1005.99
2023-09-10T11:43:57.248Z,1005.79
2023-09-10T11:44:43.171Z,1005.79
2023-09-10T11:45:29.275Z,1005.89
2023-09-10T11:46:15.162Z,1005.99
2023-09-10T11:47:01.296Z,1005.79
2023-09-10T11:47:47.266Z,1005.79
2023-09-10T11:48:33.290Z,1005.89
2023-09-10T11:49:19.278Z,1005.89
2023-09-10T11:50:05.182Z,1005.79
2023-09-10T11:50:51.171Z,1005.69
2023-09-10T11:51:37.231Z,1005.69
2023-09-10T11:52:23.217Z,1005.89
2023-09-10T11:53:09.230Z,1005.79
2023-09-10T11:53:55.235Z,1005.89
2023-09-10T11:54:41.190Z,1005.89
2023-09-10T11:55:27.322Z,1005.89
2023-09-10T11:56:13.232Z,1005.89
2023-09-10T11:56:59.234Z,1005.89
2023-09-10T11:57:45.211Z,1005.89
2023-09-10T11:58:31.225Z,1005.79
2023-09-10T11:59:17.263Z,1005.79
2023-09-10T12:00:03.370Z,1005.99
2023-09-10T12:00:49.393Z,1005.79
2023-09-10T12:01:35.237Z,1005.79
2023-09-10T12:02:21.310Z,1005.99
2023-09-10T12:03:07.529Z,1005.89
2023-09-10T12:03:53.340Z,1005.79
2023-09-10T12:04:39.239Z,1005.79
2023-09-10T12:05:25.302Z,1005.69
2023-09-10T12:06:11.216Z,1005.79
2023-09-10T12:06:57.254Z,1005.69
2023-09-10T12:07:43.254Z,1005.69
2023-09-10T12:08:29.295Z,1006.09
2023-09-10T12:09:15.293Z,1005.89
2023-09-10T12:10:01.330Z,1005.79
2023-09-10T12:10:47.317Z,1005.79
2023-09-10T12:11:33.315Z,1005.79
2023-09-10T12:12:19.371Z,1005.89
2023-09-10T12:13:05.243Z,1005.89
2023-09-10T12:13:51.258Z,1005.59
2023-09-10T12:14:37.236Z,1005.59
2023-09-10T12:15:23.395Z,1005.59
2023-09-10T12:16:09.405Z,1005.69
2023-09-10T12:16:55.392Z,1005.59
2023-09-10T12:17:41.438Z,1005.59
2023-09-10T12:18:27.390Z,1005.38
2023-09-10T12:19:13.260Z,1005.79
2023-09-10T12:19:59.365Z,1005.69
2023-09-10T12:20:45.324Z,1005.69
2023-09-10T12:21:31.319Z,1005.79
2023-09-10T12:22:17.365Z,1005.69
2023-09-10T12:23:03.431Z,1005.79
2023-09-10T12:23:49.395Z,1005.69
2023-09-10T12:24:35.341Z,1005.69
2023-09-10T12:25:21.706Z,1005.59
2023-09-10T12:26:07.292Z,1005.38
2023-09-10T12:26:53.379Z,1005.59
2023-09-10T12:27:39.288Z,1005.59
2023-09-10T12:28:25.251Z,1005.32
2023-09-10T12:29:11.313Z,1005.69
2023-09-10T12:29:57.270Z,1005.59
2023-09-10T12:30:43.431Z,1005.59
2023-09-10T12:31:29.343Z,1005.59
2023-09-10T12:32:15.283Z,1005.48
2023-09-10T12:33:01.757Z,1005.59
2023-09-10T12:33:47.318Z,1005.59
2023-09-10T12:34:33.327Z,1005.38
2023-09-10T12:35:19.350Z,1005.48
2023-09-10T12:36:05.408Z,1005.59
2023-09-10T12:36:51.343Z,1005.38
2023-09-10T12:37:37.251Z,1005.38
2023-09-10T12:38:23.337Z,1005.48
2023-09-10T12:39:09.326Z,1005.48
2023-09-10T12:39:55.378Z,1005.48
2023-09-10T12:40:41.345Z,1005.48
2023-09-10T12:41:27.331Z,1005.59
2023-09-10T12:42:13.332Z,1005.48
2023-09-10T12:42:59.309Z,1005.38
2023-09-10T12:43:45.333Z,1005.38
2023-09-10T12:44:31.411Z,1005.59
2023-09-10T12:45:17.435Z,1005.59
2023-09-10T12:46:03.398Z,1005.38
2023-09-10T12:46:49.532Z,1005.59
2023-09-10T12:47:35.427Z,1005.59
2023-09-10T12:48:21.419Z,1005.59
2023-09-10T12:49:07.430Z,1005.59
2023-09-10T12:49:53.566Z,1005.48
2023-09-10T12:50:39.456Z,1005.48
2023-09-10T12:51:25.415Z,1005.59
2023-09-10T12:52:11.393Z,1005.69
2023-09-10T12:52:57.409Z,1005.69
2023-09-10T12:53:43.511Z,1005.69
2023-09-10T12:54:29.375Z,1005.69
2023-09-10T12:55:15.313Z,1005.48
2023-09-10T12:56:01.414Z,1005.59
2023-09-10T12:56:47.389Z,1005.59
2023-09-10T12:57:33.304Z,1005.38
2023-09-10T12:58:19.306Z,1005.59
2023-09-10T12:59:05.392Z,1005.38
2023-09-10T12:59:51.264Z,1005.38
2023-09-10T13:00:37.458Z,1005.38
2023-09-10T13:01:23.384Z,1005.59
2023-09-10T13:02:09.392Z,1005.48
2023-09-10T13:02:55.451Z,1005.48
2023-09-10T13:03:41.801Z,1005.48
2023-09-10T13:04:27.347Z,1005.32
2023-09-10T13:05:13.362Z,1005.48
2023-09-10T13:05:59.362Z,1005.32
2023-09-10T13:06:45.282Z,1005.32
2023-09-10T13:07:31.369Z,1005.32
2023-09-10T13:08:17.440Z,1005.32
2023-09-10T13:09:03.363Z,1005.38
2023-09-10T13:09:49.512Z,1005.38
2023-09-10T13:10:35.372Z,1005.38
2023-09-10T13:11:21.344Z,1005.38
2023-09-10T13:12:07.371Z,1005.21
2023-09-10T13:12:53.325Z,1005.32
2023-09-10T13:13:39.630Z,1005.32
2023-09-10T13:14:25.414Z,1005.38
2023-09-10T13:15:11.507Z,1005.21
2023-09-10T13:15:57.362Z,1005.32
2023-09-10T13:16:43.427Z,1005.32
2023-09-10T13:17:29.458Z,1005.21
2023-09-10T13:18:15.532Z,1005.21
2023-09-10T13:19:01.560Z,1005.11
2023-09-10T13:19:47.401Z,1005.11
2023-09-10T13:20:33.468Z,1005.21
2023-09-10T13:21:19.460Z,1005.21
2023-09-10T13:22:05.448Z,1005.21
2023-09-10T13:22:51.480Z,1005.21
2023-09-10T13:23:37.410Z,1005.21
2023-09-10T13:24:23.829Z,1005.32
2023-09-10T13:25:09.414Z,1005.32
2023-09-10T13:25:55.508Z,1005.11
2023-09-10T13:26:41.483Z,1005.11
2023-09-10T13:27:27.413Z,1005.48
2023-09-10T13:28:13.397Z,1005.32
2023-09-10T13:28:59.460Z,1005.21
2023-09-10T13:29:45.489Z,1005.21
2023-09-10T13:30:31.645Z,1005.21
2023-09-10T13:31:17.582Z,1005.21
2023-09-10T13:32:03.455Z,1005.11
2023-09-10T13:32:49.636Z,1005.21
2023-09-10T13:33:35.515Z,1005.21
2023-09-10T13:34:21.451Z,1005.11
2023-09-10T13:35:07.529Z,1005.32
2023-09-10T13:35:53.494Z,1005.32
2023-09-10T13:36:39.439Z,1005.32
2023-09-10T13:37:25.453Z,1005.11
2023-09-10T13:38:11.543Z,1005.21
2023-09-10T13:38:57.445Z,1005.21
2023-09-10T13:39:43.469Z,1005.21
2023-09-10T13:40:29.488Z,1005.11
2023-09-10T13:41:15.549Z,1005.11
2023-09-10T13:42:01.475Z,1005.21
2023-09-10T13:42:47.510Z,1005.21
2023-09-10T13:43:33.563Z,1005.21
2023-09-10T13:44:19.596Z,1005.32
2023-09-10T13:45:05.623Z,1005.11
2023-09-10T13:45:51.499Z,1005.11
2023-09-10T13:46:37.524Z,1005.11
